sensor_id;sensor_type;location;lat;lon;timestamp;pressure;altitude;pressure_sealevel;temperature;humidity
78206;BME280;67480;48.920;12.880;2023-04-25T00:02:04;96446.94;;;7.80;61.42
78206;BME280;67480;48.920;12.880;2023-04-25T00:04:30;96447.78;;;7.89;61.18
78206;BME280;67480;48.920;12.880;2023-04-25T00:06:58;96436.16;;;7.94;60.56
78206;BME280;67480;48.920;12.880;2023-04-25T00:09:27;96440.59;;;7.99;60.36
78206;BME280;67480;48.920;12.880;2023-04-25T00:11:52;96436.81;;;8.00;60.03
78206;BME280;67480;48.920;12.880;2023-04-25T00:14:18;96442.19;;;8.00;60.31
78206;BME280;67480;48.920;12.880;2023-04-25T00:16:43;96440.63;;;8.07;59.90
78206;BME280;67480;48.920;12.880;2023-04-25T00:19:09;96435.75;;;8.09;60.52
78206;BME280;67480;48.920;12.880;2023-04-25T00:21:34;96433.88;;;8.19;60.26
78206;BME280;67480;48.920;12.880;2023-04-25T00:24:00;96439.84;;;8.16;60.53
78206;BME280;67480;48.920;12.880;2023-04-25T00:26:26;96435.63;;;8.23;60.39
78206;BME280;67480;48.920;12.880;2023-04-25T00:28:52;96440.84;;;8.28;60.42
78206;BME280;67480;48.920;12.880;2023-04-25T00:31:17;96439.75;;;8.29;60.46
78206;BME280;67480;48.920;12.880;2023-04-25T00:33:43;96423.03;;;8.32;60.76
78206;BME280;67480;48.920;12.880;2023-04-25T00:36:08;96432.03;;;8.28;60.62
78206;BME280;67480;48.920;12.880;2023-04-25T00:38:34;96420.63;;;8.22;60.37
78206;BME280;67480;48.920;12.880;2023-04-25T00:41:00;96414.03;;;8.20;60.25
78206;BME280;67480;48.920;12.880;2023-04-25T00:43:26;96407.56;;;8.21;60.85
78206;BME280;67480;48.920;12.880;2023-04-25T00:45:52;96415.41;;;8.17;60.12
78206;BME280;67480;48.920;12.880;2023-04-25T00:48:21;96408.66;;;8.11;60.64
78206;BME280;67480;48.920;12.880;2023-04-25T00:50:51;96408.16;;;8.09;60.65
78206;BME280;67480;48.920;12.880;2023-04-25T00:53:17;96403.38;;;7.97;60.69
78206;BME280;67480;48.920;12.880;2023-04-25T00:55:42;96396.84;;;7.81;60.92
78206;BME280;67480;48.920;12.880;2023-04-25T00:58:08;96398.63;;;7.94;61.16
78206;BME280;67480;48.920;12.880;2023-04-25T01:00:33;96394.72;;;8.00;61.00
78206;BME280;67480;48.920;12.880;2023-04-25T01:02:59;96398.84;;;8.06;60.82
78206;BME280;67480;48.920;12.880;2023-04-25T01:05:25;96387.31;;;8.06;60.98
78206;BME280;67480;48.920;12.880;2023-04-25T01:07:50;96380.09;;;8.06;60.78
78206;BME280;67480;48.920;12.880;2023-04-25T01:10:15;96385.44;;;8.06;60.68
78206;BME280;67480;48.920;12.880;2023-04-25T01:12:41;96384.34;;;8.07;60.30
78206;BME280;67480;48.920;12.880;2023-04-25T01:18:28;96396.75;;;7.94;60.84
78206;BME280;67480;48.920;12.880;2023-04-25T01:20:54;96389.66;;;7.90;61.16
78206;BME280;67480;48.920;12.880;2023-04-25T01:23:21;96387.16;;;7.93;61.30
78206;BME280;67480;48.920;12.880;2023-04-25T01:25:48;96388.84;;;7.89;61.41
78206;BME280;67480;48.920;12.880;2023-04-25T01:28:14;96379.41;;;7.92;60.79
78206;BME280;67480;48.920;12.880;2023-04-25T01:30:41;96386.66;;;7.91;60.49
78206;BME280;67480;48.920;12.880;2023-04-25T01:33:07;96386.97;;;7.90;60.73
78206;BME280;67480;48.920;12.880;2023-04-25T01:35:33;96386.47;;;7.88;60.89
78206;BME280;67480;48.920;12.880;2023-04-25T01:37:59;96387.09;;;7.85;60.86
78206;BME280;67480;48.920;12.880;2023-04-25T01:40:24;96395.84;;;7.68;61.92
78206;BME280;67480;48.920;12.880;2023-04-25T01:42:50;96401.53;;;7.44;62.27
78206;BME280;67480;48.920;12.880;2023-04-25T01:45:17;96397.63;;;7.50;62.70
78206;BME280;67480;48.920;12.880;2023-04-25T01:47:43;96394.22;;;7.58;62.12
78206;BME280;67480;48.920;12.880;2023-04-25T01:50:12;96390.38;;;7.50;62.67
78206;BME280;67480;48.920;12.880;2023-04-25T01:52:37;96387.97;;;7.71;62.61
78206;BME280;67480;48.920;12.880;2023-04-25T01:55:03;96392.78;;;7.83;61.94
78206;BME280;67480;48.920;12.880;2023-04-25T01:57:28;96388.78;;;7.72;62.70
78206;BME280;67480;48.920;12.880;2023-04-25T02:00:03;96391.94;;;7.74;61.96
78206;BME280;67480;48.920;12.880;2023-04-25T02:02:28;96384.97;;;7.73;62.38
78206;BME280;67480;48.920;12.880;2023-04-25T02:04:54;96389.56;;;7.72;62.27
78206;BME280;67480;48.920;12.880;2023-04-25T02:07:20;96384.47;;;7.62;62.08
78206;BME280;67480;48.920;12.880;2023-04-25T02:09:45;96388.41;;;7.33;63.08
78206;BME280;67480;48.920;12.880;2023-04-25T02:12:10;96389.56;;;7.41;63.59
78206;BME280;67480;48.920;12.880;2023-04-25T02:14:36;96394.19;;;7.49;63.52
78206;BME280;67480;48.920;12.880;2023-04-25T02:17:02;96390.59;;;7.54;63.39
78206;BME280;67480;48.920;12.880;2023-04-25T02:19:27;96386.28;;;7.44;63.67
78206;BME280;67480;48.920;12.880;2023-04-25T02:21:52;96395.19;;;7.62;63.28
78206;BME280;67480;48.920;12.880;2023-04-25T02:24:18;96386.25;;;7.75;63.35
78206;BME280;67480;48.920;12.880;2023-04-25T02:26:43;96386.47;;;7.88;62.78
78206;BME280;67480;48.920;12.880;2023-04-25T02:29:09;96385.88;;;7.91;62.89
78206;BME280;67480;48.920;12.880;2023-04-25T02:31:35;96387.31;;;7.97;62.32
78206;BME280;67480;48.920;12.880;2023-04-25T02:34:00;96377.72;;;8.05;62.23
78206;BME280;67480;48.920;12.880;2023-04-25T02:36:25;96377.44;;;8.15;62.11
78206;BME280;67480;48.920;12.880;2023-04-25T02:38:52;96390.22;;;8.18;61.57
78206;BME280;67480;48.920;12.880;2023-04-25T02:41:17;96375.97;;;8.09;61.60
78206;BME280;67480;48.920;12.880;2023-04-25T02:43:43;96379.56;;;7.95;62.65
78206;BME280;67480;48.920;12.880;2023-04-25T02:46:08;96370.97;;;7.76;63.07
78206;BME280;67480;48.920;12.880;2023-04-25T02:48:33;96378.22;;;7.75;63.56
78206;BME280;67480;48.920;12.880;2023-04-25T02:50:59;96372.72;;;7.81;63.42
78206;BME280;67480;48.920;12.880;2023-04-25T02:53:24;96370.03;;;7.81;63.69
78206;BME280;67480;48.920;12.880;2023-04-25T02:55:49;96372.44;;;7.82;63.02
78206;BME280;67480;48.920;12.880;2023-04-25T02:58:15;96373.59;;;7.90;63.43
78206;BME280;67480;48.920;12.880;2023-04-25T03:00:40;96370.91;;;7.90;63.57
78206;BME280;67480;48.920;12.880;2023-04-25T03:03:06;96364.44;;;7.91;62.94
78206;BME280;67480;48.920;12.880;2023-04-25T03:05:31;96357.97;;;7.92;63.41
78206;BME280;67480;48.920;12.880;2023-04-25T03:07:56;96350.56;;;7.98;62.59
78206;BME280;67480;48.920;12.880;2023-04-25T03:10:22;96342.84;;;7.96;62.45
78206;BME280;67480;48.920;12.880;2023-04-25T03:12:47;96348.34;;;7.91;62.42
78206;BME280;67480;48.920;12.880;2023-04-25T03:15:12;96346.44;;;7.83;62.71
78206;BME280;67480;48.920;12.880;2023-04-25T03:17:38;96340.25;;;7.73;63.07
78206;BME280;67480;48.920;12.880;2023-04-25T03:20:04;96342.94;;;7.73;62.68
78206;BME280;67480;48.920;12.880;2023-04-25T03:22:29;96337.38;;;7.70;63.56
78206;BME280;67480;48.920;12.880;2023-04-25T03:24:54;96346.09;;;7.75;62.77
78206;BME280;67480;48.920;12.880;2023-04-25T03:27:20;96340.88;;;7.79;62.92
78206;BME280;67480;48.920;12.880;2023-04-25T03:29:45;96345.66;;;7.82;62.58
78206;BME280;67480;48.920;12.880;2023-04-25T03:32:11;96337.78;;;7.86;61.93
78206;BME280;67480;48.920;12.880;2023-04-25T03:34:36;96344.13;;;7.90;61.40
78206;BME280;67480;48.920;12.880;2023-04-25T03:37:01;96342.16;;;7.82;62.01
78206;BME280;67480;48.920;12.880;2023-04-25T03:39:26;96340.78;;;7.84;61.73
78206;BME280;67480;48.920;12.880;2023-04-25T03:41:52;96338.88;;;7.85;61.49
78206;BME280;67480;48.920;12.880;2023-04-25T03:44:17;96339.84;;;7.89;60.99
78206;BME280;67480;48.920;12.880;2023-04-25T03:46:43;96344.56;;;7.83;61.61
78206;BME280;67480;48.920;12.880;2023-04-25T03:49:08;96342.16;;;7.82;61.18
78206;BME280;67480;48.920;12.880;2023-04-25T03:51:34;96343.75;;;7.83;61.23
78206;BME280;67480;48.920;12.880;2023-04-25T03:53:59;96339.28;;;7.69;61.86
78206;BME280;67480;48.920;12.880;2023-04-25T03:56:24;96348.41;;;7.68;62.01
78206;BME280;67480;48.920;12.880;2023-04-25T03:58:50;96346.53;;;7.69;62.19
78206;BME280;67480;48.920;12.880;2023-04-25T04:01:15;96353.59;;;7.65;62.60
78206;BME280;67480;48.920;12.880;2023-04-25T04:03:40;96345.41;;;7.61;62.67
78206;BME280;67480;48.920;12.880;2023-04-25T04:06:07;96347.91;;;7.57;62.91
78206;BME280;67480;48.920;12.880;2023-04-25T04:08:33;96349.78;;;7.57;62.71
78206;BME280;67480;48.920;12.880;2023-04-25T04:10:59;96349.78;;;7.57;62.81
78206;BME280;67480;48.920;12.880;2023-04-25T04:13:27;96344.63;;;7.61;62.51
78206;BME280;67480;48.920;12.880;2023-04-25T04:15:53;96340.06;;;7.70;61.80
78206;BME280;67480;48.920;12.880;2023-04-25T04:18:19;96352.38;;;7.71;61.78
78206;BME280;67480;48.920;12.880;2023-04-25T04:20:44;96347.78;;;7.71;62.13
78206;BME280;67480;48.920;12.880;2023-04-25T04:23:10;96354.72;;;7.72;61.93
78206;BME280;67480;48.920;12.880;2023-04-25T04:25:36;96349.38;;;7.72;62.09
78206;BME280;67480;48.920;12.880;2023-04-25T04:28:01;96355.50;;;7.64;62.44
78206;BME280;67480;48.920;12.880;2023-04-25T04:30:26;96352.81;;;7.64;62.44
78206;BME280;67480;48.920;12.880;2023-04-25T04:32:55;96347.16;;;7.74;61.91
78206;BME280;67480;48.920;12.880;2023-04-25T04:35:22;96350.31;;;7.76;62.23
78206;BME280;67480;48.920;12.880;2023-04-25T04:37:47;96351.75;;;7.74;62.51
78206;BME280;67480;48.920;12.880;2023-04-25T04:40:14;96355.88;;;7.80;62.36
78206;BME280;67480;48.920;12.880;2023-04-25T04:42:41;96351.50;;;7.84;62.88
78206;BME280;67480;48.920;12.880;2023-04-25T04:45:07;96349.59;;;7.85;62.78
78206;BME280;67480;48.920;12.880;2023-04-25T04:47:32;96344.56;;;7.83;62.94
78206;BME280;67480;48.920;12.880;2023-04-25T04:49:59;96351.53;;;7.93;63.22
78206;BME280;67480;48.920;12.880;2023-04-25T04:52:24;96349.31;;;7.95;62.67
78206;BME280;67480;48.920;12.880;2023-04-25T04:54:49;96349.19;;;8.00;62.47
78206;BME280;67480;48.920;12.880;2023-04-25T04:57:15;96346.50;;;8.09;62.64
78206;BME280;67480;48.920;12.880;2023-04-25T04:59:41;96347.63;;;8.08;62.10
78206;BME280;67480;48.920;12.880;2023-04-25T05:02:07;96347.16;;;8.14;62.48
78206;BME280;67480;48.920;12.880;2023-04-25T05:04:32;96346.34;;;8.14;62.15
78206;BME280;67480;48.920;12.880;2023-04-25T05:06:58;96339.59;;;8.17;62.49
78206;BME280;67480;48.920;12.880;2023-04-25T05:09:23;96348.41;;;8.17;62.08
78206;BME280;67480;48.920;12.880;2023-04-25T05:11:51;96345.25;;;8.24;61.64
78206;BME280;67480;48.920;12.880;2023-04-25T05:14:16;96342.78;;;8.36;61.60
78206;BME280;67480;48.920;12.880;2023-04-25T05:16:42;96350.50;;;8.46;61.49
78206;BME280;67480;48.920;12.880;2023-04-25T05:19:08;96348.31;;;8.57;61.96
78206;BME280;67480;48.920;12.880;2023-04-25T05:21:33;96344.66;;;8.79;61.26
78206;BME280;67480;48.920;12.880;2023-04-25T05:23:59;96333.47;;;8.86;60.81
78206;BME280;67480;48.920;12.880;2023-04-25T05:26:25;96341.34;;;9.00;60.80
78206;BME280;67480;48.920;12.880;2023-04-25T05:28:50;96342.09;;;9.00;60.22
78206;BME280;67480;48.920;12.880;2023-04-25T05:31:16;96335.47;;;9.06;60.25
78206;BME280;67480;48.920;12.880;2023-04-25T05:33:41;96335.16;;;9.17;59.18
78206;BME280;67480;48.920;12.880;2023-04-25T05:36:07;96330.09;;;9.15;59.03
78206;BME280;67480;48.920;12.880;2023-04-25T05:38:33;96333.22;;;9.26;58.09
78206;BME280;67480;48.920;12.880;2023-04-25T05:40:59;96331.44;;;9.39;56.16
78206;BME280;67480;48.920;12.880;2023-04-25T05:43:24;96327.03;;;9.34;56.46
78206;BME280;67480;48.920;12.880;2023-04-25T05:45:49;96325.31;;;9.38;56.49
78206;BME280;67480;48.920;12.880;2023-04-25T05:48:15;96325.31;;;9.30;56.73
78206;BME280;67480;48.920;12.880;2023-04-25T05:50:40;96328.66;;;9.27;57.15
78206;BME280;67480;48.920;12.880;2023-04-25T05:53:06;96328.16;;;9.42;56.76
78206;BME280;67480;48.920;12.880;2023-04-25T05:55:31;96327.47;;;9.54;55.97
78206;BME280;67480;48.920;12.880;2023-04-25T05:57:56;96335.44;;;9.24;55.59
78206;BME280;67480;48.920;12.880;2023-04-25T06:00:22;96342.59;;;8.94;55.13
78206;BME280;67480;48.920;12.880;2023-04-25T06:02:48;96341.69;;;8.46;57.25
78206;BME280;67480;48.920;12.880;2023-04-25T06:05:13;96349.03;;;8.14;58.84
78206;BME280;67480;48.920;12.880;2023-04-25T06:07:38;96351.91;;;8.35;59.11
78206;BME280;67480;48.920;12.880;2023-04-25T06:10:04;96357.75;;;8.46;59.08
78206;BME280;67480;48.920;12.880;2023-04-25T06:12:32;96353.50;;;8.71;58.47
78206;BME280;67480;48.920;12.880;2023-04-25T06:14:58;96351.31;;;8.73;58.54
78206;BME280;67480;48.920;12.880;2023-04-25T06:17:23;96344.69;;;8.62;58.26
78206;BME280;67480;48.920;12.880;2023-04-25T06:19:48;96351.78;;;8.66;58.61
78206;BME280;67480;48.920;12.880;2023-04-25T06:22:14;96351.75;;;8.84;57.92
78206;BME280;67480;48.920;12.880;2023-04-25T06:24:39;96352.72;;;8.79;58.20
78206;BME280;67480;48.920;12.880;2023-04-25T06:27:05;96345.94;;;8.64;58.44
78206;BME280;67480;48.920;12.880;2023-04-25T06:29:30;96337.41;;;8.71;58.10
78206;BME280;67480;48.920;12.880;2023-04-25T06:31:55;96335.81;;;8.96;57.47
78206;BME280;67480;48.920;12.880;2023-04-25T06:34:22;96338.00;;;9.20;56.90
78206;BME280;67480;48.920;12.880;2023-04-25T06:36:47;96331.50;;;9.30;56.45
78206;BME280;67480;48.920;12.880;2023-04-25T06:39:12;96325.09;;;9.61;55.94
78206;BME280;67480;48.920;12.880;2023-04-25T06:41:37;96338.22;;;10.64;53.62
78206;BME280;67480;48.920;12.880;2023-04-25T06:44:03;96329.50;;;11.34;51.78
78206;BME280;67480;48.920;12.880;2023-04-25T06:46:28;96326.53;;;11.73;50.31
78206;BME280;67480;48.920;12.880;2023-04-25T06:48:53;96328.78;;;11.58;50.87
78206;BME280;67480;48.920;12.880;2023-04-25T06:51:19;96320.28;;;11.23;50.58
78206;BME280;67480;48.920;12.880;2023-04-25T06:53:44;96323.31;;;11.21;50.12
78206;BME280;67480;48.920;12.880;2023-04-25T06:56:09;96333.69;;;10.77;51.80
78206;BME280;67480;48.920;12.880;2023-04-25T06:58:35;96329.41;;;10.55;52.25
78206;BME280;67480;48.920;12.880;2023-04-25T07:01:00;96329.09;;;10.57;52.74
78206;BME280;67480;48.920;12.880;2023-04-25T07:03:26;96335.31;;;10.48;52.85
78206;BME280;67480;48.920;12.880;2023-04-25T07:05:51;96335.22;;;9.85;54.47
78206;BME280;67480;48.920;12.880;2023-04-25T07:08:16;96323.81;;;9.97;52.23
78206;BME280;67480;48.920;12.880;2023-04-25T07:10:42;96329.00;;;10.02;52.83
78206;BME280;67480;48.920;12.880;2023-04-25T07:13:07;96327.16;;;9.94;51.13
78206;BME280;67480;48.920;12.880;2023-04-25T07:15:33;96319.09;;;9.94;50.48
78206;BME280;67480;48.920;12.880;2023-04-25T07:17:58;96326.72;;;9.83;50.87
78206;BME280;67480;48.920;12.880;2023-04-25T07:20:24;96327.13;;;9.64;51.99
78206;BME280;67480;48.920;12.880;2023-04-25T07:22:49;96325.00;;;9.78;50.41
78206;BME280;67480;48.920;12.880;2023-04-25T07:25:15;96323.06;;;9.88;51.57
78206;BME280;67480;48.920;12.880;2023-04-25T07:27:41;96324.94;;;10.17;50.69
78206;BME280;67480;48.920;12.880;2023-04-25T07:30:07;96327.16;;;9.94;50.46
78206;BME280;67480;48.920;12.880;2023-04-25T07:32:32;96330.28;;;9.66;52.00
78206;BME280;67480;48.920;12.880;2023-04-25T07:34:57;96326.50;;;9.58;52.84
78206;BME280;67480;48.920;12.880;2023-04-25T07:37:23;96327.34;;;9.50;51.86
78206;BME280;67480;48.920;12.880;2023-04-25T07:39:48;96333.31;;;9.56;51.88
78206;BME280;67480;48.920;12.880;2023-04-25T07:42:13;96333.28;;;9.94;51.23
78206;BME280;67480;48.920;12.880;2023-04-25T07:44:39;96329.84;;;9.94;51.15
78206;BME280;67480;48.920;12.880;2023-04-25T07:47:11;96333.44;;;9.98;50.48
78206;BME280;67480;48.920;12.880;2023-04-25T07:49:37;96323.63;;;10.02;50.21
78206;BME280;67480;48.920;12.880;2023-04-25T07:52:04;96324.88;;;10.68;49.13
78206;BME280;67480;48.920;12.880;2023-04-25T07:54:30;96322.75;;;10.82;49.07
78206;BME280;67480;48.920;12.880;2023-04-25T07:56:56;96320.97;;;10.65;49.52
78206;BME280;67480;48.920;12.880;2023-04-25T07:59:21;96315.72;;;11.02;48.94
78206;BME280;67480;48.920;12.880;2023-04-25T08:01:47;96321.28;;;12.13;46.19
78206;BME280;67480;48.920;12.880;2023-04-25T08:04:12;96315.78;;;12.50;45.24
78206;BME280;67480;48.920;12.880;2023-04-25T08:06:38;96320.22;;;12.71;45.68
78206;BME280;67480;48.920;12.880;2023-04-25T08:09:03;96311.34;;;12.99;44.26
78206;BME280;67480;48.920;12.880;2023-04-25T08:11:29;96313.69;;;14.28;42.95
78206;BME280;67480;48.920;12.880;2023-04-25T08:13:55;96307.53;;;13.16;42.38
78206;BME280;67480;48.920;12.880;2023-04-25T08:16:20;96302.03;;;13.12;43.25
78206;BME280;67480;48.920;12.880;2023-04-25T08:18:46;96314.09;;;12.46;45.24
78206;BME280;67480;48.920;12.880;2023-04-25T08:21:11;96315.41;;;11.62;46.75
78206;BME280;67480;48.920;12.880;2023-04-25T08:23:38;96318.13;;;10.83;49.40
78206;BME280;67480;48.920;12.880;2023-04-25T08:26:03;96311.91;;;10.49;51.45
78206;BME280;67480;48.920;12.880;2023-04-25T08:28:30;96314.00;;;10.22;52.53
78206;BME280;67480;48.920;12.880;2023-04-25T08:30:55;96309.88;;;9.95;53.52
78206;BME280;67480;48.920;12.880;2023-04-25T08:33:20;96318.00;;;9.56;52.52
78206;BME280;67480;48.920;12.880;2023-04-25T08:35:46;96327.09;;;9.73;53.66
78206;BME280;67480;48.920;12.880;2023-04-25T08:38:11;96318.97;;;9.82;55.05
78206;BME280;67480;48.920;12.880;2023-04-25T08:40:38;96319.28;;;9.89;54.03
78206;BME280;67480;48.920;12.880;2023-04-25T08:43:05;96321.50;;;10.08;55.57
78206;BME280;67480;48.920;12.880;2023-04-25T08:45:39;96333.38;;;11.95;51.92
78206;BME280;67480;48.920;12.880;2023-04-25T08:48:11;96324.69;;;13.68;49.12
78206;BME280;67480;48.920;12.880;2023-04-25T08:50:54;96329.03;;;14.75;43.92
78206;BME280;67480;48.920;12.880;2023-04-25T08:53:23;96330.75;;;17.40;40.08
78206;BME280;67480;48.920;12.880;2023-04-25T08:55:50;96333.97;;;19.91;36.20
78206;BME280;67480;48.920;12.880;2023-04-25T08:58:18;96343.44;;;21.18;31.74
78206;BME280;67480;48.920;12.880;2023-04-25T09:00:43;96342.38;;;22.97;29.97
78206;BME280;67480;48.920;12.880;2023-04-25T09:03:09;96328.47;;;20.20;31.98
78206;BME280;67480;48.920;12.880;2023-04-25T09:05:35;96331.59;;;19.75;33.22
78206;BME280;67480;48.920;12.880;2023-04-25T09:08:01;96331.63;;;20.04;32.35
78206;BME280;67480;48.920;12.880;2023-04-25T09:10:27;96331.47;;;20.83;31.11
78206;BME280;67480;48.920;12.880;2023-04-25T09:13:07;96332.22;;;21.69;29.68
78206;BME280;67480;48.920;12.880;2023-04-25T09:15:53;96337.56;;;22.32;28.25
78206;BME280;67480;48.920;12.880;2023-04-25T09:18:29;96330.78;;;19.71;32.25
78206;BME280;67480;48.920;12.880;2023-04-25T09:20:56;96354.44;;;15.29;39.49
78206;BME280;67480;48.920;12.880;2023-04-25T09:23:23;96350.97;;;12.95;46.02
78206;BME280;67480;48.920;12.880;2023-04-25T09:25:51;96355.56;;;11.42;49.38
78206;BME280;67480;48.920;12.880;2023-04-25T09:28:23;96356.34;;;11.43;52.99
78206;BME280;67480;48.920;12.880;2023-04-25T09:30:54;96368.59;;;11.40;52.66
78206;BME280;67480;48.920;12.880;2023-04-25T09:33:20;96361.06;;;11.46;51.21
78206;BME280;67480;48.920;12.880;2023-04-25T09:35:45;96360.81;;;11.27;50.08
78206;BME280;67480;48.920;12.880;2023-04-25T09:38:12;96357.22;;;11.35;49.54
78206;BME280;67480;48.920;12.880;2023-04-25T09:40:45;96352.75;;;11.39;49.18
78206;BME280;67480;48.920;12.880;2023-04-25T09:43:21;96356.38;;;11.55;49.58
78206;BME280;67480;48.920;12.880;2023-04-25T09:45:46;96347.31;;;11.60;48.46
78206;BME280;67480;48.920;12.880;2023-04-25T09:48:20;96344.66;;;10.93;49.59
78206;BME280;67480;48.920;12.880;2023-04-25T09:53:29;96349.63;;;11.49;51.03
78206;BME280;67480;48.920;12.880;2023-04-25T09:55:55;96357.28;;;11.47;51.12
78206;BME280;67480;48.920;12.880;2023-04-25T09:58:24;96352.06;;;11.30;49.74
78206;BME280;67480;48.920;12.880;2023-04-25T10:00:50;96351.69;;;11.19;51.53
78206;BME280;67480;48.920;12.880;2023-04-25T10:03:17;96353.63;;;10.34;51.29
78206;BME280;67480;48.920;12.880;2023-04-25T10:05:43;96359.53;;;10.69;51.45
78206;BME280;67480;48.920;12.880;2023-04-25T10:08:08;96357.66;;;10.49;54.41
78206;BME280;67480;48.920;12.880;2023-04-25T10:10:35;96359.59;;;10.40;54.62
78206;BME280;67480;48.920;12.880;2023-04-25T10:13:04;96354.97;;;10.70;53.26
78206;BME280;67480;48.920;12.880;2023-04-25T10:15:30;96362.03;;;10.75;53.00
78206;BME280;67480;48.920;12.880;2023-04-25T10:17:57;96357.31;;;10.93;51.97
78206;BME280;67480;48.920;12.880;2023-04-25T10:20:23;96353.47;;;11.15;52.45
78206;BME280;67480;48.920;12.880;2023-04-25T10:22:51;96352.69;;;11.60;49.44
78206;BME280;67480;48.920;12.880;2023-04-25T10:25:19;96348.25;;;12.66;47.51
78206;BME280;67480;48.920;12.880;2023-04-25T10:27:45;96352.97;;;15.12;42.70
78206;BME280;67480;48.920;12.880;2023-04-25T10:30:13;96345.56;;;17.91;38.68
78206;BME280;67480;48.920;12.880;2023-04-25T10:32:42;96358.41;;;19.30;33.80
78206;BME280;67480;48.920;12.880;2023-04-25T10:35:12;96360.06;;;21.56;30.75
78206;BME280;67480;48.920;12.880;2023-04-25T10:37:38;96359.22;;;19.38;32.64
78206;BME280;67480;48.920;12.880;2023-04-25T10:40:10;96358.84;;;16.57;38.10
78206;BME280;67480;48.920;12.880;2023-04-25T10:42:35;96360.56;;;15.26;41.90
78206;BME280;67480;48.920;12.880;2023-04-25T10:45:04;96351.22;;;13.62;44.34
78206;BME280;67480;48.920;12.880;2023-04-25T10:47:36;96346.53;;;12.21;47.14
78206;BME280;67480;48.920;12.880;2023-04-25T10:50:08;96361.56;;;11.60;53.70
78206;BME280;67480;48.920;12.880;2023-04-25T10:52:34;96350.03;;;11.27;54.40
78206;BME280;67480;48.920;12.880;2023-04-25T10:55:02;96364.72;;;10.96;55.54
78206;BME280;67480;48.920;12.880;2023-04-25T11:00:01;96370.78;;;9.91;56.13
78206;BME280;67480;48.920;12.880;2023-04-25T11:02:45;96370.75;;;10.00;57.37
78206;BME280;67480;48.920;12.880;2023-04-25T11:07:54;96376.56;;;10.10;56.36
78206;BME280;67480;48.920;12.880;2023-04-25T11:10:26;96374.94;;;10.18;55.13
78206;BME280;67480;48.920;12.880;2023-04-25T11:12:51;96374.44;;;10.46;55.95
78206;BME280;67480;48.920;12.880;2023-04-25T11:15:16;96373.81;;;10.70;55.58
78206;BME280;67480;48.920;12.880;2023-04-25T11:17:42;96370.81;;;11.26;52.70
78206;BME280;67480;48.920;12.880;2023-04-25T11:20:08;96372.56;;;11.68;51.74
78206;BME280;67480;48.920;12.880;2023-04-25T11:22:37;96374.66;;;12.20;51.00
78206;BME280;67480;48.920;12.880;2023-04-25T11:25:07;96377.53;;;17.22;42.78
78206;BME280;67480;48.920;12.880;2023-04-25T11:27:33;96383.53;;;22.13;30.77
78206;BME280;67480;48.920;12.880;2023-04-25T11:30:09;96387.97;;;25.91;25.04
78206;BME280;67480;48.920;12.880;2023-04-25T11:32:35;96391.59;;;26.37;24.69
78206;BME280;67480;48.920;12.880;2023-04-25T11:35:00;96392.50;;;27.64;25.62
78206;BME280;67480;48.920;12.880;2023-04-25T11:37:25;96403.13;;;30.75;21.69
78206;BME280;67480;48.920;12.880;2023-04-25T11:39:52;96398.16;;;32.68;21.31
78206;BME280;67480;48.920;12.880;2023-04-25T11:42:17;96408.31;;;33.50;20.19
78206;BME280;67480;48.920;12.880;2023-04-25T11:44:43;96401.00;;;33.82;18.38
78206;BME280;67480;48.920;12.880;2023-04-25T11:47:08;96399.19;;;33.34;16.99
78206;BME280;67480;48.920;12.880;2023-04-25T11:49:35;96387.47;;;32.76;18.58
78206;BME280;67480;48.920;12.880;2023-04-25T11:52:01;96394.19;;;30.12;21.24
78206;BME280;67480;48.920;12.880;2023-04-25T11:54:26;96394.03;;;27.65;23.12
78206;BME280;67480;48.920;12.880;2023-04-25T11:56:51;96386.03;;;27.28;22.49
78206;BME280;67480;48.920;12.880;2023-04-25T11:59:16;96383.78;;;26.35;23.84
78206;BME280;67480;48.920;12.880;2023-04-25T12:01:49;96382.66;;;23.65;25.86
78206;BME280;67480;48.920;12.880;2023-04-25T12:04:16;96392.03;;;26.52;24.13
78206;BME280;67480;48.920;12.880;2023-04-25T12:06:44;96392.34;;;29.68;19.45
78206;BME280;67480;48.920;12.880;2023-04-25T12:09:12;96393.53;;;31.04;17.02
78206;BME280;67480;48.920;12.880;2023-04-25T12:11:48;96388.59;;;30.99;17.31
78206;BME280;67480;48.920;12.880;2023-04-25T12:14:27;96389.91;;;32.59;16.62
78206;BME280;67480;48.920;12.880;2023-04-25T12:16:58;96399.41;;;30.87;17.76
78206;BME280;67480;48.920;12.880;2023-04-25T12:19:24;96376.31;;;29.41;18.25
78206;BME280;67480;48.920;12.880;2023-04-25T12:21:51;96371.31;;;24.85;23.92
78206;BME280;67480;48.920;12.880;2023-04-25T12:24:18;96376.63;;;21.20;27.58
78206;BME280;67480;48.920;12.880;2023-04-25T12:26:52;96372.81;;;19.20;30.01
78206;BME280;67480;48.920;12.880;2023-04-25T12:29:20;96373.81;;;22.50;29.06
78206;BME280;67480;48.920;12.880;2023-04-25T12:31:45;96388.50;;;27.78;23.21
78206;BME280;67480;48.920;12.880;2023-04-25T12:34:11;96373.91;;;25.12;23.21
78206;BME280;67480;48.920;12.880;2023-04-25T12:36:37;96380.44;;;22.11;25.79
78206;BME280;67480;48.920;12.880;2023-04-25T12:39:02;96378.69;;;23.70;25.54
78206;BME280;67480;48.920;12.880;2023-04-25T12:41:29;96377.50;;;26.81;21.06
78206;BME280;67480;48.920;12.880;2023-04-25T12:43:55;96388.13;;;28.53;20.82
78206;BME280;67480;48.920;12.880;2023-04-25T12:46:20;96393.72;;;30.72;18.08
78206;BME280;67480;48.920;12.880;2023-04-25T12:48:46;96392.88;;;25.83;22.10
78206;BME280;67480;48.920;12.880;2023-04-25T12:51:11;96386.31;;;21.46;26.31
78206;BME280;67480;48.920;12.880;2023-04-25T12:53:37;96371.47;;;18.85;29.65
78206;BME280;67480;48.920;12.880;2023-04-25T12:56:04;96378.84;;;22.10;25.34
78206;BME280;67480;48.920;12.880;2023-04-25T12:58:29;96392.78;;;26.03;21.77
78206;BME280;67480;48.920;12.880;2023-04-25T13:00:55;96399.59;;;29.65;19.27
78206;BME280;67480;48.920;12.880;2023-04-25T13:03:20;96401.25;;;31.18;16.89